createdAt,value
2022-07-29T00:00:39.336Z,0.00
2022-07-29T00:01:39.319Z,0.00
2022-07-29T00:02:39.335Z,0.00
2022-07-29T00:03:39.361Z,0.00
2022-07-29T00:04:39.344Z,0.00
2022-07-29T00:05:39.278Z,0.00
2022-07-29T00:06:39.302Z,0.00
2022-07-29T00:07:39.259Z,0.00
2022-07-29T00:08:39.262Z,0.00
2022-07-29T00:09:51.097Z,0.00
2022-07-29T00:10:39.229Z,0.00
2022-07-29T00:11:39.240Z,0.00
2022-07-29T00:12:39.244Z,0.00
2022-07-29T00:13:39.213Z,0.00
2022-07-29T00:14:39.206Z,0.00
2022-07-29T00:15:39.192Z,0.00
2022-07-29T00:16:39.246Z,0.00
2022-07-29T00:17:39.187Z,0.00
2022-07-29T00:18:39.173Z,0.00
2022-07-29T00:19:39.153Z,0.00
2022-07-29T00:20:39.143Z,0.00
2022-07-29T00:21:39.154Z,0.00
2022-07-29T00:22:39.125Z,0.00
2022-07-29T00:23:39.129Z,0.00
2022-07-29T00:24:39.125Z,0.00
2022-07-29T00:25:39.119Z,0.00
2022-07-29T00:26:39.103Z,0.00
2022-07-29T00:27:39.100Z,0.00
2022-07-29T00:28:39.089Z,0.00
2022-07-29T00:29:39.081Z,0.00
2022-07-29T00:30:39.071Z,0.00
2022-07-29T00:31:39.089Z,0.00
2022-07-29T00:32:39.039Z,0.00
2022-07-29T00:33:39.029Z,0.00
2022-07-29T00:34:39.039Z,0.00
2022-07-29T00:35:39.033Z,0.00
2022-07-29T00:36:39.034Z,0.00
2022-07-29T00:37:39.017Z,0.00
2022-07-29T00:38:39.001Z,0.00
2022-07-29T00:39:38.996Z,0.00
2022-07-29T00:40:38.983Z,0.00
2022-07-29T00:41:38.962Z,0.00
2022-07-29T00:42:38.980Z,0.00
2022-07-29T00:43:38.943Z,0.00
2022-07-29T00:44:38.972Z,0.00
2022-07-29T00:45:38.946Z,0.00
2022-07-29T00:46:38.963Z,0.00
2022-07-29T00:47:38.930Z,0.00
2022-07-29T00:48:38.959Z,0.00
2022-07-29T00:49:38.899Z,0.00
2022-07-29T00:50:38.901Z,0.00
2022-07-29T00:51:38.877Z,0.00
2022-07-29T00:52:38.869Z,0.00
2022-07-29T00:53:38.871Z,0.00
2022-07-29T00:54:44.082Z,0.00
2022-07-29T00:55:38.853Z,0.00
2022-07-29T00:56:38.829Z,0.00
2022-07-29T00:57:38.822Z,0.00
2022-07-29T00:58:38.810Z,0.00
2022-07-29T00:59:38.824Z,0.00
2022-07-29T01:00:38.850Z,0.00
2022-07-29T01:01:38.857Z,0.00
2022-07-29T01:02:38.834Z,0.00
2022-07-29T01:03:38.772Z,0.00
2022-07-29T01:04:38.763Z,0.00
2022-07-29T01:05:49.801Z,0.00
2022-07-29T01:06:38.777Z,0.00
2022-07-29T01:07:38.743Z,0.00
2022-07-29T01:08:38.738Z,0.00
2022-07-29T01:09:46.342Z,0.00
2022-07-29T01:10:38.719Z,0.00
2022-07-29T01:11:38.706Z,0.00
2022-07-29T01:12:38.727Z,0.00
2022-07-29T01:13:38.700Z,0.00
2022-07-29T01:14:38.680Z,0.00
2022-07-29T01:15:38.668Z,0.00
2022-07-29T01:16:38.700Z,0.00
2022-07-29T01:17:38.650Z,0.00
2022-07-29T01:18:38.668Z,0.00
2022-07-29T01:19:38.629Z,0.00
2022-07-29T01:20:38.619Z,0.00
2022-07-29T01:21:38.635Z,0.00
2022-07-29T01:22:38.599Z,0.00
2022-07-29T01:23:38.614Z,0.00
2022-07-29T01:24:38.614Z,0.00
2022-07-29T01:25:38.580Z,0.00
2022-07-29T01:26:38.583Z,0.00
2022-07-29T01:27:38.562Z,0.00
2022-07-29T01:28:38.566Z,0.00
2022-07-29T01:29:38.759Z,0.00
2022-07-29T01:30:38.567Z,0.00
2022-07-29T01:31:45.369Z,0.00
2022-07-29T01:32:38.527Z,0.00
2022-07-29T01:33:38.528Z,0.00
2022-07-29T01:34:38.495Z,0.00
2022-07-29T01:35:38.509Z,0.00
2022-07-29T01:36:38.509Z,0.00
2022-07-29T01:37:38.488Z,0.00
2022-07-29T01:38:38.466Z,0.00
2022-07-29T01:39:38.472Z,0.00
2022-07-29T01:40:38.461Z,0.00
2022-07-29T01:41:38.456Z,0.00
2022-07-29T01:42:38.463Z,0.00
2022-07-29T01:43:38.426Z,0.00
2022-07-29T01:44:38.423Z,0.00
2022-07-29T01:45:38.420Z,0.00
2022-07-29T01:46:38.432Z,0.00
2022-07-29T01:47:38.404Z,0.00
2022-07-29T01:48:38.461Z,0.00
2022-07-29T01:49:38.373Z,0.00
2022-07-29T01:50:38.364Z,0.00
2022-07-29T01:51:38.353Z,0.00
2022-07-29T01:52:38.362Z,0.00
2022-07-29T01:53:38.455Z,0.00
2022-07-29T01:54:38.333Z,0.00
2022-07-29T01:55:38.323Z,0.00
2022-07-29T01:56:38.304Z,0.00
2022-07-29T01:57:38.317Z,0.00
2022-07-29T01:58:38.308Z,0.00
2022-07-29T01:59:38.298Z,0.00
2022-07-29T02:00:38.301Z,0.00
2022-07-29T02:01:38.306Z,0.00
2022-07-29T02:02:38.267Z,0.00
2022-07-29T02:03:38.247Z,0.00
2022-07-29T02:04:38.297Z,0.00
2022-07-29T02:05:38.240Z,0.00
2022-07-29T02:06:38.242Z,0.00
2022-07-29T02:07:38.229Z,0.00
2022-07-29T02:08:38.199Z,0.00
2022-07-29T02:09:38.213Z,0.00
2022-07-29T02:10:38.196Z,0.00
2022-07-29T02:11:38.195Z,0.00
2022-07-29T02:12:38.171Z,0.00
2022-07-29T02:13:38.176Z,0.00
2022-07-29T02:14:38.157Z,0.00
2022-07-29T02:15:38.260Z,0.00
2022-07-29T02:16:38.207Z,0.00
2022-07-29T02:17:40.809Z,0.00
2022-07-29T02:18:38.134Z,0.00
2022-07-29T02:19:38.111Z,0.00
2022-07-29T02:20:38.108Z,0.00
2022-07-29T02:21:38.106Z,0.00
2022-07-29T02:22:38.076Z,0.00
2022-07-29T02:23:44.994Z,0.00
2022-07-29T02:24:38.099Z,0.00
2022-07-29T02:25:38.496Z,0.00
2022-07-29T02:26:38.046Z,0.00
2022-07-29T02:27:38.051Z,0.00
2022-07-29T02:28:38.027Z,0.00
2022-07-29T02:29:38.037Z,0.00
2022-07-29T02:30:38.028Z,0.00
2022-07-29T02:31:38.083Z,0.00
2022-07-29T02:32:37.989Z,0.00
2022-07-29T02:33:37.989Z,0.00
2022-07-29T02:34:37.974Z,0.00
2022-07-29T02:35:37.984Z,0.00
2022-07-29T02:36:37.974Z,0.00
2022-07-29T02:37:37.950Z,0.00
2022-07-29T02:38:37.955Z,0.00
2022-07-29T02:39:37.945Z,0.00
2022-07-29T02:40:37.922Z,0.00
2022-07-29T02:41:37.914Z,0.00
2022-07-29T02:42:37.936Z,0.00
2022-07-29T02:43:37.903Z,0.00
2022-07-29T02:44:37.884Z,0.00
2022-07-29T02:45:37.899Z,0.00
2022-07-29T02:46:37.936Z,0.00
2022-07-29T02:47:42.039Z,0.00
2022-07-29T02:48:37.905Z,0.00
2022-07-29T02:49:37.863Z,0.00
2022-07-29T02:50:37.848Z,0.00
2022-07-29T02:51:43.625Z,0.00
2022-07-29T02:52:37.831Z,0.00
2022-07-29T02:53:37.821Z,0.00
2022-07-29T02:54:37.817Z,0.00
2022-07-29T02:55:37.788Z,0.00
2022-07-29T02:56:37.782Z,0.00
2022-07-29T02:57:54.380Z,0.00
2022-07-29T02:58:37.759Z,0.00
2022-07-29T02:59:37.775Z,0.00
2022-07-29T03:00:37.770Z,0.00
2022-07-29T03:01:37.833Z,0.00
2022-07-29T03:02:37.721Z,0.00
2022-07-29T03:03:37.712Z,0.00
2022-07-29T03:04:37.748Z,0.00
2022-07-29T03:05:37.692Z,0.00
2022-07-29T03:06:38.376Z,0.00
2022-07-29T03:07:37.673Z,0.00
2022-07-29T03:08:37.663Z,0.00
2022-07-29T03:09:37.675Z,0.00
2022-07-29T03:10:37.658Z,0.00
2022-07-29T03:11:42.452Z,0.00
2022-07-29T03:12:37.659Z,0.00
2022-07-29T03:13:37.626Z,0.00
2022-07-29T03:14:37.619Z,0.00
2022-07-29T03:15:37.668Z,0.00
2022-07-29T03:16:41.078Z,0.00
2022-07-29T03:17:37.602Z,0.00
2022-07-29T03:18:37.597Z,0.00
2022-07-29T03:19:37.567Z,0.00
2022-07-29T03:20:37.558Z,0.00
2022-07-29T03:21:37.561Z,0.00
2022-07-29T03:22:37.552Z,0.00
2022-07-29T03:23:37.528Z,0.00
2022-07-29T03:24:37.559Z,0.00
2022-07-29T03:25:37.523Z,0.00
2022-07-29T03:26:37.505Z,0.00
2022-07-29T03:27:37.514Z,0.00
2022-07-29T03:28:37.480Z,0.00
2022-07-29T03:29:37.493Z,0.00
2022-07-29T03:30:37.481Z,0.00
2022-07-29T03:31:37.556Z,0.00
2022-07-29T03:32:37.456Z,0.00
2022-07-29T03:33:37.462Z,0.00
2022-07-29T03:34:37.444Z,0.00
2022-07-29T03:35:37.425Z,0.00
2022-07-29T03:36:37.447Z,0.00
2022-07-29T03:37:37.419Z,0.00
2022-07-29T03:38:37.412Z,0.00
2022-07-29T03:39:37.386Z,0.00
2022-07-29T03:40:37.390Z,4.00
2022-07-29T03:41:37.379Z,0.00
2022-07-29T03:42:37.416Z,0.00
2022-07-29T03:43:37.368Z,0.00
2022-07-29T03:44:37.351Z,4.00
2022-07-29T03:45:37.352Z,4.00
2022-07-29T03:46:37.382Z,0.00
2022-07-29T03:47:49.918Z,0.00
2022-07-29T03:48:37.375Z,4.00
2022-07-29T03:49:37.302Z,0.00
2022-07-29T03:50:37.305Z,4.00
2022-07-29T03:51:37.281Z,0.00
2022-07-29T03:52:37.287Z,4.00
2022-07-29T03:53:37.275Z,4.00
2022-07-29T03:54:37.282Z,8.00
2022-07-29T03:55:37.256Z,8.00
2022-07-29T03:56:37.236Z,8.00
2022-07-29T03:57:37.247Z,8.00
2022-07-29T03:58:37.214Z,8.00
2022-07-29T03:59:37.227Z,8.00
2022-07-29T04:00:37.228Z,8.00
2022-07-29T04:01:37.233Z,12.00
2022-07-29T04:02:37.186Z,12.00
2022-07-29T04:03:37.223Z,16.00
2022-07-29T04:04:37.212Z,16.00
2022-07-29T04:05:37.211Z,16.00
2022-07-29T04:06:37.165Z,16.00
2022-07-29T04:07:37.146Z,16.00
2022-07-29T04:08:37.141Z,16.00
2022-07-29T04:09:37.140Z,20.00
2022-07-29T04:10:37.122Z,20.00
2022-07-29T04:12:01.556Z,24.00
2022-07-29T04:12:37.112Z,20.00
2022-07-29T04:13:37.091Z,20.00
2022-07-29T04:14:37.077Z,20.00
2022-07-29T04:15:37.156Z,24.00
2022-07-29T04:16:37.060Z,24.00
2022-07-29T04:17:37.064Z,20.00
2022-07-29T04:18:37.123Z,24.00
2022-07-29T04:19:37.054Z,24.00
2022-07-29T04:20:37.026Z,24.00
2022-07-29T04:21:37.022Z,24.00
2022-07-29T04:22:37.004Z,28.00
2022-07-29T04:23:52.765Z,28.00
2022-07-29T04:24:37.021Z,28.00
2022-07-29T04:25:36.999Z,28.00
2022-07-29T04:26:36.988Z,28.00
2022-07-29T04:27:36.979Z,24.00
2022-07-29T04:28:36.979Z,28.00
2022-07-29T04:29:36.960Z,28.00
2022-07-29T04:30:36.967Z,24.00
2022-07-29T04:31:37.001Z,28.00
2022-07-29T04:32:36.941Z,20.00
2022-07-29T04:33:36.909Z,20.00
2022-07-29T04:34:36.909Z,24.00
2022-07-29T04:35:38.530Z,20.00
2022-07-29T04:36:36.920Z,20.00
2022-07-29T04:37:36.891Z,20.00
2022-07-29T04:38:36.891Z,24.00
2022-07-29T04:39:36.873Z,24.00
2022-07-29T04:40:38.613Z,24.00
2022-07-29T04:41:36.842Z,28.00
2022-07-29T04:42:41.998Z,28.00
2022-07-29T04:43:37.048Z,28.00
2022-07-29T04:44:37.223Z,28.00
2022-07-29T04:45:36.803Z,28.00
2022-07-29T04:46:36.945Z,28.00
2022-07-29T04:47:36.794Z,24.00
2022-07-29T04:48:36.819Z,28.00
2022-07-29T04:49:36.775Z,28.00
2022-07-29T04:50:36.766Z,28.00
2022-07-29T04:51:36.755Z,28.00
2022-07-29T04:52:36.777Z,24.00
2022-07-29T04:53:36.736Z,20.00
2022-07-29T04:54:36.771Z,20.00
2022-07-29T04:55:36.732Z,20.00
2022-07-29T04:56:36.718Z,20.00
2022-07-29T04:57:36.700Z,24.00
2022-07-29T04:58:36.701Z,24.00
2022-07-29T04:59:36.688Z,24.00
2022-07-29T05:00:36.705Z,20.00
2022-07-29T05:01:36.738Z,24.00
2022-07-29T05:02:36.741Z,28.00
2022-07-29T05:03:36.651Z,28.00
2022-07-29T05:04:36.641Z,32.00
2022-07-29T05:05:36.631Z,32.00
2022-07-29T05:06:36.632Z,32.00
2022-07-29T05:07:36.613Z,32.00
2022-07-29T05:08:36.641Z,28.00
2022-07-29T05:09:36.602Z,28.00
2022-07-29T05:10:36.607Z,28.00
2022-07-29T05:11:36.586Z,28.00
2022-07-29T05:12:36.597Z,24.00
2022-07-29T05:13:45.455Z,20.00
2022-07-29T05:14:36.569Z,20.00
2022-07-29T05:15:36.584Z,20.00
2022-07-29T05:16:36.556Z,20.00
2022-07-29T05:17:36.527Z,20.00
2022-07-29T05:18:36.540Z,24.00
2022-07-29T05:19:39.284Z,24.00
2022-07-29T05:20:36.520Z,28.00
2022-07-29T05:21:36.502Z,28.00
2022-07-29T05:22:36.502Z,32.00
2022-07-29T05:23:36.488Z,36.00
2022-07-29T05:24:36.504Z,32.00
2022-07-29T05:25:43.719Z,36.00
2022-07-29T05:26:36.471Z,36.00
2022-07-29T05:27:36.439Z,36.00
2022-07-29T05:28:36.434Z,36.00
2022-07-29T05:29:43.983Z,36.00
2022-07-29T05:30:36.477Z,36.00
2022-07-29T05:31:36.437Z,36.00
2022-07-29T05:32:36.428Z,36.00
2022-07-29T05:33:37.189Z,36.00
2022-07-29T05:34:36.396Z,40.00
2022-07-29T05:35:36.377Z,40.00
2022-07-29T05:36:36.473Z,40.00
2022-07-29T05:37:36.353Z,40.00
2022-07-29T05:38:36.383Z,44.00
2022-07-29T05:39:47.483Z,40.00
2022-07-29T05:40:36.358Z,44.00
2022-07-29T05:41:36.316Z,52.00
2022-07-29T05:42:36.430Z,56.00
2022-07-29T05:43:36.310Z,60.00
2022-07-29T05:44:36.296Z,68.00
2022-07-29T05:45:49.947Z,68.00
2022-07-29T05:46:36.362Z,76.00
2022-07-29T05:47:36.273Z,80.00
2022-07-29T05:48:36.415Z,84.00
2022-07-29T05:49:36.295Z,96.00
2022-07-29T05:50:36.254Z,108.00
2022-07-29T05:51:36.230Z,112.00
2022-07-29T05:52:36.221Z,120.00
2022-07-29T05:53:36.224Z,128.00
2022-07-29T05:54:36.211Z,140.00
2022-07-29T05:55:36.194Z,144.00
2022-07-29T05:56:36.192Z,152.00
2022-07-29T05:57:36.172Z,160.00
2022-07-29T05:58:36.176Z,164.00
2022-07-29T05:59:36.163Z,172.00
2022-07-29T06:00:36.177Z,172.00
2022-07-29T06:01:36.202Z,176.00
2022-07-29T06:02:36.148Z,184.00
2022-07-29T06:03:36.126Z,192.00
2022-07-29T06:04:36.176Z,212.00
2022-07-29T06:05:36.113Z,236.00
2022-07-29T06:06:36.106Z,244.00
2022-07-29T06:07:36.099Z,252.00
2022-07-29T06:08:36.087Z,256.00
2022-07-29T06:09:36.498Z,252.00
2022-07-29T06:10:36.081Z,268.00
2022-07-29T06:11:36.059Z,284.00
2022-07-29T06:12:36.069Z,296.00
2022-07-29T06:13:36.039Z,308.00
2022-07-29T06:14:36.029Z,316.00
2022-07-29T06:15:36.083Z,320.00
2022-07-29T06:16:36.095Z,320.00
2022-07-29T06:17:36.014Z,328.00
2022-07-29T06:18:36.036Z,344.00
2022-07-29T06:19:35.996Z,352.00
2022-07-29T06:20:35.982Z,352.00
2022-07-29T06:21:35.990Z,356.00
2022-07-29T06:22:35.976Z,352.00
2022-07-29T06:23:35.967Z,336.00
2022-07-29T06:24:35.955Z,360.00
2022-07-29T06:25:35.947Z,364.00
2022-07-29T06:26:39.672Z,372.00
2022-07-29T06:27:35.929Z,408.00
2022-07-29T06:28:35.914Z,444.00
2022-07-29T06:29:35.909Z,464.00
2022-07-29T06:30:35.930Z,476.00
2022-07-29T06:31:35.889Z,484.00
2022-07-29T06:32:38.961Z,552.00
2022-07-29T06:33:35.879Z,760.00
2022-07-29T06:34:35.859Z,728.00
2022-07-29T06:35:38.765Z,752.00
2022-07-29T06:36:35.859Z,728.00
2022-07-29T06:37:35.844Z,468.00
2022-07-29T06:38:37.440Z,452.00
2022-07-29T06:39:35.810Z,432.00
2022-07-29T06:40:35.810Z,388.00
2022-07-29T06:41:35.791Z,356.00
2022-07-29T06:42:35.822Z,340.00
2022-07-29T06:43:35.787Z,328.00
2022-07-29T06:44:35.771Z,324.00
2022-07-29T06:45:35.767Z,316.00
2022-07-29T06:46:35.868Z,316.00
2022-07-29T06:47:35.756Z,324.00
2022-07-29T06:48:35.777Z,340.00
2022-07-29T06:49:35.723Z,360.00
2022-07-29T06:50:35.733Z,384.00
2022-07-29T06:51:35.716Z,404.00
2022-07-29T06:52:35.694Z,412.00
2022-07-29T06:53:35.684Z,424.00
2022-07-29T06:54:35.786Z,428.00
2022-07-29T06:55:35.666Z,416.00
2022-07-29T06:56:38.437Z,396.00
2022-07-29T06:57:35.660Z,376.00
2022-07-29T06:58:35.647Z,356.00
2022-07-29T06:59:36.167Z,328.00
2022-07-29T07:00:35.663Z,296.00
2022-07-29T07:01:35.844Z,276.00
2022-07-29T07:02:35.649Z,264.00
2022-07-29T07:03:35.611Z,260.00
2022-07-29T07:04:35.603Z,268.00
2022-07-29T07:05:35.597Z,272.00
2022-07-29T07:06:35.603Z,272.00
2022-07-29T07:07:35.573Z,268.00
2022-07-29T07:08:35.574Z,264.00
2022-07-29T07:09:40.387Z,268.00
2022-07-29T07:10:35.541Z,272.00
2022-07-29T07:11:35.547Z,280.00
2022-07-29T07:12:35.542Z,280.00
2022-07-29T07:13:36.681Z,280.00
2022-07-29T07:14:35.507Z,280.00
2022-07-29T07:15:39.792Z,280.00
2022-07-29T07:16:35.550Z,280.00
2022-07-29T07:17:35.488Z,276.00
2022-07-29T07:18:35.484Z,264.00
2022-07-29T07:19:35.456Z,248.00
2022-07-29T07:20:35.471Z,252.00
2022-07-29T07:21:35.459Z,248.00
2022-07-29T07:22:38.789Z,244.00
2022-07-29T07:23:35.417Z,244.00
2022-07-29T07:24:35.438Z,244.00
2022-07-29T07:25:35.420Z,244.00
2022-07-29T07:26:35.411Z,244.00
2022-07-29T07:27:35.401Z,248.00
2022-07-29T07:28:35.403Z,264.00
2022-07-29T07:29:35.383Z,280.00
2022-07-29T07:30:35.369Z,296.00
2022-07-29T07:31:35.415Z,296.00
2022-07-29T07:32:35.350Z,300.00
2022-07-29T07:33:35.331Z,300.00
2022-07-29T07:34:35.345Z,280.00
2022-07-29T07:35:35.325Z,276.00
2022-07-29T07:36:35.332Z,268.00
2022-07-29T07:37:35.302Z,264.00
2022-07-29T07:38:35.316Z,276.00
2022-07-29T07:39:35.296Z,340.00
2022-07-29T07:40:35.279Z,228.00
2022-07-29T07:41:35.263Z,196.00
2022-07-29T07:42:35.285Z,180.00
2022-07-29T07:43:35.258Z,164.00
2022-07-29T07:44:51.288Z,152.00
2022-07-29T07:45:35.288Z,144.00
2022-07-29T07:46:35.239Z,136.00
2022-07-29T07:47:35.227Z,124.00
2022-07-29T07:48:35.240Z,116.00
2022-07-29T07:49:35.197Z,116.00
2022-07-29T07:50:35.197Z,112.00
2022-07-29T07:51:35.194Z,116.00
2022-07-29T07:52:35.202Z,112.00
2022-07-29T07:53:35.172Z,112.00
2022-07-29T07:54:35.189Z,120.00
2022-07-29T07:56:00.340Z,128.00
2022-07-29T07:56:35.524Z,132.00
2022-07-29T07:57:35.134Z,140.00
2022-07-29T07:58:35.134Z,140.00
2022-07-29T07:59:35.110Z,152.00
2022-07-29T08:00:35.113Z,156.00
2022-07-29T08:01:55.245Z,160.00
2022-07-29T08:02:35.150Z,168.00
2022-07-29T08:03:35.089Z,172.00
2022-07-29T08:04:35.063Z,172.00
2022-07-29T08:05:35.054Z,172.00
2022-07-29T08:06:35.086Z,172.00
2022-07-29T08:07:35.048Z,172.00
2022-07-29T08:08:35.047Z,176.00
2022-07-29T08:09:35.024Z,188.00
2022-07-29T08:10:35.016Z,200.00
2022-07-29T08:11:35.241Z,216.00
2022-07-29T08:12:35.020Z,216.00
2022-07-29T08:13:34.986Z,228.00
2022-07-29T08:14:34.978Z,236.00
2022-07-29T08:15:34.967Z,240.00
2022-07-29T08:16:35.060Z,240.00
2022-07-29T08:17:35.387Z,240.00
2022-07-29T08:18:34.979Z,240.00
2022-07-29T08:19:34.929Z,240.00
2022-07-29T08:20:34.930Z,240.00
2022-07-29T08:21:34.925Z,252.00
2022-07-29T08:22:34.925Z,264.00
2022-07-29T08:23:46.180Z,280.00
2022-07-29T08:24:34.902Z,316.00
2022-07-29T08:25:34.902Z,352.00
2022-07-29T08:26:34.886Z,356.00
2022-07-29T08:27:43.477Z,364.00
2022-07-29T08:28:34.869Z,368.00
2022-07-29T08:29:34.844Z,360.00
2022-07-29T08:30:34.853Z,332.00
2022-07-29T08:31:34.960Z,304.00
2022-07-29T08:32:53.055Z,280.00
2022-07-29T08:33:34.814Z,256.00
2022-07-29T08:34:34.819Z,236.00
2022-07-29T08:35:35.678Z,216.00
2022-07-29T08:36:34.807Z,204.00
2022-07-29T08:37:34.776Z,184.00
2022-07-29T08:38:34.768Z,172.00
2022-07-29T08:39:34.771Z,160.00
2022-07-29T08:40:34.749Z,152.00
2022-07-29T08:41:34.760Z,144.00
2022-07-29T08:42:34.739Z,148.00
2022-07-29T08:43:34.742Z,144.00
2022-07-29T08:44:34.724Z,144.00
2022-07-29T08:45:34.799Z,136.00
2022-07-29T08:46:34.712Z,132.00
2022-07-29T08:47:34.705Z,132.00
2022-07-29T08:48:34.694Z,132.00
2022-07-29T08:49:34.672Z,132.00
2022-07-29T08:50:34.676Z,124.00
2022-07-29T08:51:34.667Z,120.00
2022-07-29T08:52:34.657Z,120.00
2022-07-29T08:53:34.648Z,112.00
2022-07-29T08:54:34.766Z,108.00
2022-07-29T08:55:34.627Z,108.00
2022-07-29T08:56:34.621Z,104.00
2022-07-29T08:57:34.626Z,104.00
2022-07-29T08:58:36.791Z,108.00
2022-07-29T08:59:34.600Z,104.00
2022-07-29T09:00:34.587Z,96.00
2022-07-29T09:01:35.533Z,96.00
2022-07-29T09:02:34.572Z,100.00
2022-07-29T09:05:00.495Z,96.00
2022-07-29T09:06:00.537Z,96.00
2022-07-29T09:07:00.491Z,96.00
2022-07-29T09:08:00.473Z,96.00
2022-07-29T09:09:00.453Z,92.00
2022-07-29T09:10:00.454Z,96.00
2022-07-29T09:11:00.444Z,104.00
2022-07-29T09:12:00.445Z,112.00
2022-07-29T09:13:00.415Z,124.00
2022-07-29T09:14:00.433Z,128.00
2022-07-29T09:15:00.419Z,132.00
2022-07-29T09:16:02.515Z,144.00
2022-07-29T09:17:00.684Z,180.00
2022-07-29T09:18:00.397Z,172.00
2022-07-29T09:19:00.382Z,180.00
2022-07-29T09:20:00.368Z,172.00
2022-07-29T09:21:00.359Z,172.00
2022-07-29T09:22:00.527Z,160.00
2022-07-29T09:23:00.336Z,152.00
2022-07-29T09:24:00.360Z,148.00
2022-07-29T09:25:00.321Z,140.00
2022-07-29T09:26:00.320Z,132.00
2022-07-29T09:27:00.301Z,132.00
2022-07-29T09:28:00.301Z,128.00
2022-07-29T09:29:00.281Z,124.00
2022-07-29T09:30:00.333Z,116.00
2022-07-29T09:31:00.286Z,108.00
2022-07-29T09:32:00.328Z,104.00
2022-07-29T09:33:00.295Z,104.00
2022-07-29T09:34:00.254Z,104.00
2022-07-29T09:35:00.247Z,112.00
2022-07-29T09:36:00.266Z,120.00
2022-07-29T09:37:00.215Z,136.00
2022-07-29T09:38:00.227Z,144.00
2022-07-29T09:39:00.210Z,156.00
2022-07-29T09:40:00.207Z,176.00
2022-07-29T09:41:01.735Z,200.00
2022-07-29T09:42:00.199Z,216.00
2022-07-29T09:43:00.166Z,224.00
2022-07-29T09:44:00.158Z,224.00
2022-07-29T09:45:00.152Z,228.00
2022-07-29T09:46:00.152Z,244.00
2022-07-29T09:47:00.252Z,256.00
2022-07-29T09:48:00.139Z,292.00
2022-07-29T09:49:00.230Z,336.00
2022-07-29T09:50:00.326Z,352.00
2022-07-29T09:51:00.102Z,408.00
2022-07-29T09:52:00.105Z,512.00
2022-07-29T09:53:00.083Z,748.00
2022-07-29T09:54:00.101Z,1220.00
2022-07-29T09:55:00.079Z,964.00
2022-07-29T09:56:00.077Z,924.00
2022-07-29T09:57:00.046Z,788.00
2022-07-29T09:58:00.072Z,648.00
2022-07-29T09:59:00.038Z,644.00
2022-07-29T10:00:00.034Z,884.00
2022-07-29T10:01:00.081Z,860.00
2022-07-29T10:02:00.019Z,1420.00
2022-07-29T10:03:00.033Z,680.00
2022-07-29T10:04:00.000Z,616.00
2022-07-29T10:04:59.978Z,568.00
2022-07-29T10:06:00.012Z,592.00
2022-07-29T10:07:04.242Z,636.00
2022-07-29T10:07:59.959Z,688.00
2022-07-29T10:08:59.939Z,588.00
2022-07-29T10:09:59.939Z,608.00
2022-07-29T10:10:59.943Z,792.00
2022-07-29T10:12:00.097Z,868.00
2022-07-29T10:13:06.178Z,736.00
2022-07-29T10:13:59.916Z,672.00
2022-07-29T10:14:59.891Z,556.00
2022-07-29T10:15:59.922Z,496.00
2022-07-29T10:16:59.873Z,544.00
2022-07-29T10:17:59.883Z,476.00
2022-07-29T10:18:59.867Z,452.00
2022-07-29T10:19:59.870Z,424.00
2022-07-29T10:20:59.844Z,396.00
2022-07-29T10:22:00.251Z,376.00
2022-07-29T10:22:59.840Z,360.00
2022-07-29T10:24:01.219Z,316.00
2022-07-29T10:24:59.827Z,292.00
2022-07-29T10:25:59.820Z,280.00
2022-07-29T10:26:59.788Z,276.00
2022-07-29T10:27:59.800Z,288.00
2022-07-29T10:28:59.781Z,304.00
2022-07-29T10:29:59.882Z,316.00
2022-07-29T10:30:59.797Z,320.00
2022-07-29T10:31:59.749Z,368.00
2022-07-29T10:32:59.753Z,376.00
2022-07-29T10:33:59.742Z,376.00
2022-07-29T10:34:59.720Z,352.00
2022-07-29T10:35:59.731Z,348.00
2022-07-29T10:36:59.702Z,348.00
2022-07-29T10:37:59.701Z,356.00
2022-07-29T10:38:59.697Z,352.00
2022-07-29T10:39:59.699Z,356.00
2022-07-29T10:40:59.674Z,368.00
2022-07-29T10:41:59.754Z,368.00
2022-07-29T10:42:59.653Z,388.00
2022-07-29T10:43:59.644Z,412.00
2022-07-29T10:44:59.634Z,432.00
2022-07-29T10:45:59.648Z,460.00
2022-07-29T10:46:59.647Z,460.00
2022-07-29T10:47:59.649Z,452.00
2022-07-29T10:48:59.630Z,472.00
2022-07-29T10:50:01.315Z,516.00
2022-07-29T10:50:59.611Z,536.00
2022-07-29T10:51:59.953Z,524.00
2022-07-29T10:52:59.569Z,532.00
2022-07-29T10:53:59.603Z,564.00
2022-07-29T10:54:59.566Z,596.00
2022-07-29T10:55:59.562Z,584.00
2022-07-29T10:56:59.555Z,592.00
2022-07-29T10:57:59.544Z,620.00
2022-07-29T10:58:59.517Z,636.00
2022-07-29T10:59:59.541Z,560.00
2022-07-29T11:00:59.503Z,524.00
2022-07-29T11:02:27.762Z,740.00
2022-07-29T11:02:59.576Z,560.00
2022-07-29T11:03:59.506Z,584.00
2022-07-29T11:04:59.464Z,580.00
2022-07-29T11:06:00.175Z,552.00
2022-07-29T11:06:59.452Z,544.00
2022-07-29T11:07:59.467Z,504.00
2022-07-29T11:08:59.436Z,480.00
2022-07-29T11:09:59.426Z,456.00
2022-07-29T11:10:59.419Z,440.00
2022-07-29T11:11:59.725Z,464.00
2022-07-29T11:12:59.448Z,520.00
2022-07-29T11:13:59.400Z,528.00
2022-07-29T11:14:59.377Z,548.00
2022-07-29T11:15:59.391Z,784.00
2022-07-29T11:16:59.372Z,752.00
2022-07-29T11:18:00.329Z,708.00
2022-07-29T11:18:59.353Z,660.00
2022-07-29T11:19:59.339Z,616.00
2022-07-29T11:20:59.343Z,568.00
2022-07-29T11:21:59.319Z,552.00
2022-07-29T11:22:59.310Z,536.00
2022-07-29T11:23:59.344Z,500.00
2022-07-29T11:24:59.291Z,472.00
2022-07-29T11:25:59.304Z,440.00
2022-07-29T11:27:00.701Z,384.00
2022-07-29T11:27:59.271Z,356.00
2022-07-29T11:28:59.263Z,340.00
2022-07-29T11:30:01.235Z,328.00
2022-07-29T11:30:59.258Z,328.00
2022-07-29T11:31:59.520Z,328.00
2022-07-29T11:32:59.225Z,324.00
2022-07-29T11:34:02.474Z,328.00
2022-07-29T11:34:59.221Z,328.00
2022-07-29T11:36:00.796Z,332.00
2022-07-29T11:36:59.269Z,336.00
2022-07-29T11:37:59.187Z,332.00
2022-07-29T11:38:59.190Z,324.00
2022-07-29T11:40:02.287Z,336.00
2022-07-29T11:40:59.175Z,344.00
2022-07-29T11:42:03.141Z,332.00
2022-07-29T11:42:59.155Z,348.00
2022-07-29T11:43:59.204Z,376.00
2022-07-29T11:44:59.138Z,448.00
2022-07-29T11:45:59.142Z,580.00
2022-07-29T11:46:59.124Z,564.00
2022-07-29T11:48:03.685Z,556.00
2022-07-29T11:48:59.154Z,516.00
2022-07-29T11:49:59.887Z,456.00
2022-07-29T11:50:59.081Z,452.00
2022-07-29T11:51:59.358Z,448.00
2022-07-29T11:52:59.075Z,456.00
2022-07-29T11:54:04.105Z,460.00
2022-07-29T11:55:00.801Z,500.00
2022-07-29T11:55:59.048Z,512.00
2022-07-29T11:56:59.025Z,584.00
2022-07-29T11:58:03.809Z,624.00
2022-07-29T11:58:59.006Z,752.00
2022-07-29T12:00:59.000Z,784.00
2022-07-29T12:02:18.508Z,704.00
2022-07-29T12:02:59.019Z,804.00
2022-07-29T12:03:58.993Z,768.00
2022-07-29T12:04:58.958Z,700.00
2022-07-29T12:05:58.982Z,656.00
2022-07-29T12:07:00.606Z,644.00
2022-07-29T12:07:02.430Z,728.00
2022-07-29T12:07:58.930Z,608.00
2022-07-29T12:08:58.929Z,572.00
2022-07-29T12:09:58.924Z,544.00
2022-07-29T12:10:58.923Z,532.00
2022-07-29T12:12:04.986Z,524.00
2022-07-29T12:12:58.893Z,500.00
2022-07-29T12:13:58.886Z,476.00
2022-07-29T12:14:58.892Z,456.00
2022-07-29T12:16:00.015Z,440.00
2022-07-29T12:16:58.884Z,432.00
2022-07-29T12:18:03.585Z,440.00
2022-07-29T12:18:59.205Z,456.00
2022-07-29T12:19:58.824Z,456.00
2022-07-29T12:20:58.825Z,456.00
2022-07-29T12:21:59.516Z,460.00
2022-07-29T12:22:58.807Z,460.00
2022-07-29T12:24:05.917Z,448.00
2022-07-29T12:25:23.246Z,428.00
2022-07-29T12:25:58.778Z,420.00
2022-07-29T12:26:58.792Z,428.00
2022-07-29T12:27:58.760Z,444.00
2022-07-29T12:28:58.764Z,464.00
2022-07-29T12:29:58.786Z,484.00
2022-07-29T12:30:58.740Z,492.00
2022-07-29T12:31:58.880Z,496.00
2022-07-29T12:32:58.721Z,488.00
2022-07-29T12:33:58.712Z,484.00
2022-07-29T12:34:58.716Z,480.00
2022-07-29T12:36:06.796Z,464.00
2022-07-29T12:36:58.693Z,448.00
2022-07-29T12:37:58.690Z,428.00
2022-07-29T12:38:58.678Z,408.00
2022-07-29T12:39:58.654Z,396.00
2022-07-29T12:40:58.660Z,380.00
2022-07-29T12:42:04.422Z,368.00
2022-07-29T12:42:58.652Z,348.00
2022-07-29T12:43:58.637Z,332.00
2022-07-29T12:44:58.637Z,312.00
2022-07-29T12:45:58.616Z,300.00
2022-07-29T12:46:58.675Z,292.00
2022-07-29T12:47:58.612Z,292.00
2022-07-29T12:48:58.713Z,300.00